createdAt,value
2023-07-01T00:02:44.765Z,99157.03
2023-07-01T00:05:32.616Z,99161.84
2023-07-01T00:08:21.882Z,99165.78
2023-07-01T00:11:09.767Z,99160.81
2023-07-01T00:13:57.851Z,99174.13
2023-07-01T00:16:45.730Z,99165.81
2023-07-01T00:19:33.814Z,99164.44
2023-07-01T00:22:21.745Z,99163.28
2023-07-01T00:25:11.286Z,99161.63
2023-07-01T00:27:59.063Z,99168.75
2023-07-01T00:30:47.151Z,99155.59
2023-07-01T00:33:35.051Z,99159.34
2023-07-01T00:36:22.782Z,99162.25
2023-07-01T00:39:10.623Z,99161.00
2023-07-01T00:41:59.744Z,99153.31
2023-07-01T00:44:47.550Z,99164.97
2023-07-01T00:47:35.437Z,99159.72
2023-07-01T00:50:23.711Z,99154.44
2023-07-01T00:53:11.557Z,99164.75
2023-07-01T00:55:59.567Z,99162.47
2023-07-01T00:58:49.026Z,99152.06
2023-07-01T01:01:40.976Z,99145.38
2023-07-01T01:04:35.725Z,99158.06
2023-07-01T01:07:29.172Z,99155.59
2023-07-01T01:10:24.411Z,99162.06
2023-07-01T01:13:14.841Z,99161.66
2023-07-01T01:16:05.061Z,99160.63
2023-07-01T01:18:54.362Z,99158.78
2023-07-01T01:21:44.541Z,99158.69
2023-07-01T01:24:39.241Z,99153.72
2023-07-01T01:27:30.620Z,99154.13
2023-07-01T01:30:19.846Z,99147.22
2023-07-01T01:33:08.298Z,99146.94
2023-07-01T01:36:02.567Z,99118.22
2023-07-01T01:38:50.987Z,99144.16
2023-07-01T01:41:44.627Z,99144.25
2023-07-01T01:44:46.372Z,99141.66
2023-07-01T01:47:37.935Z,99153.09
2023-07-01T01:50:26.764Z,99145.78
2023-07-01T01:53:15.096Z,99146.00
2023-07-01T01:56:04.746Z,99156.00
2023-07-01T01:58:52.701Z,99155.16
2023-07-01T02:01:41.063Z,99150.38
2023-07-01T02:04:30.684Z,99147.63
2023-07-01T02:07:18.589Z,99153.91
2023-07-01T02:10:07.706Z,99148.72
2023-07-01T02:12:55.489Z,99152.06
2023-07-01T02:15:43.506Z,99148.78
2023-07-01T02:18:31.411Z,99164.69
2023-07-01T02:21:20.791Z,99146.91
2023-07-01T02:24:08.755Z,99152.88
2023-07-01T02:26:56.488Z,99156.84
2023-07-01T02:29:45.678Z,99158.69
2023-07-01T02:32:33.555Z,99162.78
2023-07-01T02:35:21.756Z,99155.03
2023-07-01T02:38:11.138Z,99168.44
2023-07-01T02:40:59.310Z,99171.44
2023-07-01T02:43:47.122Z,99168.59
2023-07-01T02:46:35.203Z,99178.03
2023-07-01T02:49:22.989Z,99170.88
2023-07-01T02:52:11.385Z,99176.09
2023-07-01T02:55:00.540Z,99184.72
2023-07-01T02:57:49.098Z,99179.97
2023-07-01T03:00:36.949Z,99179.22
2023-07-01T03:03:25.604Z,99185.06
2023-07-01T03:06:13.921Z,99178.63
2023-07-01T03:09:01.893Z,99184.78
2023-07-01T03:11:53.216Z,99185.06
2023-07-01T03:14:41.007Z,99180.84
2023-07-01T03:17:28.944Z,99178.91
2023-07-01T03:20:24.492Z,99174.31
2023-07-01T03:23:12.552Z,99172.13
2023-07-01T03:26:01.848Z,99164.41
2023-07-01T03:28:51.001Z,99170.63
2023-07-01T03:31:38.976Z,99171.66
2023-07-01T03:34:27.003Z,99135.50
2023-07-01T03:37:14.840Z,99169.25
2023-07-01T03:40:02.633Z,99175.63
2023-07-01T03:42:50.485Z,99176.97
2023-07-01T03:45:39.702Z,99169.59
2023-07-01T03:48:27.622Z,99165.22
2023-07-01T03:51:16.513Z,99164.09
2023-07-01T03:54:04.592Z,99154.03
2023-07-01T03:56:52.501Z,99152.56
2023-07-01T03:59:40.283Z,99162.63
2023-07-01T04:02:29.693Z,99154.66
2023-07-01T04:05:17.934Z,99165.91
2023-07-01T04:08:05.972Z,99163.78
2023-07-01T04:10:53.837Z,99150.63
2023-07-01T04:13:41.664Z,99162.22
2023-07-01T04:16:30.639Z,99160.03
2023-07-01T04:19:19.878Z,99155.72
2023-07-01T04:22:08.085Z,99153.03
2023-07-01T04:24:55.875Z,99155.53
2023-07-01T04:27:44.957Z,99139.19
2023-07-01T04:30:32.995Z,99153.56
2023-07-01T04:33:21.313Z,99161.97
2023-07-01T04:36:10.431Z,99159.53
2023-07-01T04:38:58.454Z,99161.22
2023-07-01T04:41:46.147Z,99162.28
2023-07-01T04:44:34.168Z,99168.31
2023-07-01T04:47:22.337Z,99159.97
2023-07-01T04:50:10.524Z,99169.16
2023-07-01T04:52:59.822Z,99169.56
2023-07-01T04:55:47.969Z,99154.75
2023-07-01T04:58:36.009Z,99155.13
2023-07-01T05:01:24.085Z,99161.72
2023-07-01T05:04:12.323Z,99158.38
2023-07-01T05:07:00.697Z,99154.41
2023-07-01T05:12:37.671Z,99148.88
2023-07-01T05:15:25.632Z,99160.16
2023-07-01T05:18:13.449Z,99163.84
2023-07-01T05:21:01.329Z,99174.91
2023-07-01T05:23:49.191Z,99167.75
2023-07-01T05:26:38.528Z,99170.88
2023-07-01T05:29:27.829Z,99174.88
2023-07-01T05:32:15.678Z,99184.25
2023-07-01T05:35:04.017Z,99175.44
2023-07-01T05:37:51.886Z,99177.50
2023-07-01T05:40:40.310Z,99175.16
2023-07-01T05:43:29.724Z,99164.94
2023-07-01T05:46:17.713Z,99096.84
2023-07-01T05:49:05.455Z,99166.34
2023-07-01T05:51:53.392Z,99154.69
2023-07-01T05:54:41.408Z,99162.16
2023-07-01T05:57:29.522Z,99164.91
2023-07-01T06:00:19.611Z,99173.09
2023-07-01T06:03:07.417Z,99168.66
2023-07-01T06:05:55.440Z,99171.66
2023-07-01T06:08:43.784Z,99167.38
2023-07-01T06:11:31.662Z,99165.81
2023-07-01T06:14:19.424Z,99164.28
2023-07-01T06:17:08.648Z,99173.84
2023-07-01T06:19:56.578Z,99178.03
2023-07-01T06:22:44.355Z,99173.06
2023-07-01T06:25:32.324Z,99151.41
2023-07-01T06:28:20.216Z,99167.00
2023-07-01T06:31:08.240Z,99176.81
2023-07-01T06:33:57.485Z,99178.41
2023-07-01T06:36:46.038Z,99174.56
2023-07-01T06:39:34.134Z,99172.38
2023-07-01T06:42:22.803Z,99183.50
2023-07-01T06:45:11.228Z,99181.66
2023-07-01T06:47:59.879Z,99188.88
2023-07-01T06:50:49.331Z,99183.19
2023-07-01T06:53:40.166Z,99190.28
2023-07-01T06:56:28.163Z,99194.69
2023-07-01T06:59:16.033Z,99191.00
2023-07-01T07:02:04.074Z,99189.13
2023-07-01T07:04:53.589Z,99188.22
2023-07-01T07:07:42.940Z,99192.44
2023-07-01T07:10:30.739Z,99183.91
2023-07-01T07:13:19.855Z,99188.03
2023-07-01T07:16:07.789Z,99194.19
2023-07-01T07:18:55.609Z,99194.06
2023-07-01T07:21:43.714Z,99187.28
2023-07-01T07:24:33.042Z,99184.03
2023-07-01T07:27:21.118Z,99185.00
2023-07-01T07:30:09.922Z,99185.00
2023-07-01T07:32:58.061Z,99179.19
2023-07-01T07:35:46.374Z,99190.22
2023-07-01T07:38:34.064Z,99187.88
2023-07-01T07:41:23.293Z,99189.22
2023-07-01T07:44:11.518Z,99185.63
2023-07-01T07:47:01.271Z,99179.25
2023-07-01T07:49:49.251Z,99181.41
2023-07-01T07:52:37.222Z,99170.00
2023-07-01T07:55:27.162Z,99172.16
2023-07-01T07:58:16.291Z,99169.72
2023-07-01T08:01:04.220Z,99167.59
2023-07-01T08:03:52.384Z,99169.13
2023-07-01T08:06:40.278Z,99167.25
2023-07-01T08:09:28.127Z,99163.41
2023-07-01T08:12:16.541Z,99159.59
2023-07-01T08:15:09.359Z,99157.81
2023-07-01T08:17:57.373Z,99164.81
2023-07-01T08:20:45.939Z,99154.91
2023-07-01T08:23:34.592Z,99146.75
2023-07-01T08:26:22.423Z,99149.09
2023-07-01T08:29:11.273Z,99149.38
2023-07-01T08:32:01.428Z,99142.50
2023-07-01T08:34:49.146Z,99137.16
2023-07-01T08:37:37.354Z,99132.72
2023-07-01T08:40:25.049Z,99118.00
2023-07-01T08:43:13.209Z,99126.06
2023-07-01T08:46:04.960Z,99111.13
2023-07-01T08:48:57.450Z,99107.63
2023-07-01T08:51:46.803Z,99116.19
2023-07-01T08:54:36.243Z,99111.47
2023-07-01T08:57:24.250Z,99107.56
2023-07-01T09:00:14.514Z,99110.41
2023-07-01T09:03:04.618Z,99118.91
2023-07-01T09:05:54.054Z,99116.69
2023-07-01T09:08:41.919Z,99119.78
2023-07-01T09:11:30.238Z,99116.78
2023-07-01T09:14:18.107Z,99109.81
2023-07-01T09:17:27.654Z,99109.72
2023-07-01T09:20:15.861Z,99100.59
2023-07-01T09:23:05.009Z,99105.00
2023-07-01T09:25:52.785Z,99099.50
2023-07-01T09:28:41.371Z,99104.81
2023-07-01T09:31:29.389Z,99096.94
2023-07-01T09:34:18.531Z,99093.41
2023-07-01T09:37:18.221Z,99093.09
2023-07-01T09:40:21.658Z,99096.28
2023-07-01T09:43:09.607Z,99091.88
2023-07-01T09:45:57.804Z,99085.53
2023-07-01T09:48:54.091Z,99080.69
2023-07-01T09:51:50.341Z,99060.94
2023-07-01T09:54:39.364Z,99065.53
2023-07-01T09:57:28.806Z,99072.47
2023-07-01T10:00:17.759Z,99064.69
2023-07-01T10:03:05.623Z,99064.91
2023-07-01T10:05:54.608Z,99061.56
2023-07-01T10:08:44.914Z,99060.63
2023-07-01T10:11:34.457Z,99057.38
2023-07-01T10:14:25.516Z,99056.59
2023-07-01T10:17:13.660Z,99047.16
2023-07-01T10:20:28.644Z,99045.97
2023-07-01T10:23:16.610Z,99045.06
2023-07-01T10:26:36.336Z,99042.59
2023-07-01T10:29:57.090Z,99034.47
2023-07-01T10:32:45.090Z,99036.94
2023-07-01T10:35:33.183Z,99027.75
2023-07-01T10:38:22.381Z,99003.03
2023-07-01T10:41:10.462Z,99019.31
2023-07-01T10:44:26.608Z,99013.81
2023-07-01T10:47:19.092Z,99006.88
2023-07-01T10:50:11.890Z,99003.50
2023-07-01T10:53:03.972Z,99001.19
2023-07-01T10:55:52.255Z,98998.53
2023-07-01T10:58:40.528Z,99007.91
2023-07-01T11:01:43.942Z,98996.13
2023-07-01T11:05:04.865Z,98986.06
2023-07-01T11:07:54.432Z,98976.50
2023-07-01T11:10:45.157Z,98971.28
2023-07-01T11:13:32.963Z,98976.75
2023-07-01T11:16:22.873Z,98969.06
2023-07-01T11:19:16.681Z,98962.22
2023-07-01T11:22:05.424Z,98951.03
2023-07-01T11:25:04.180Z,98944.72
2023-07-01T11:27:52.016Z,98940.38
2023-07-01T11:30:39.880Z,98937.34
2023-07-01T11:33:27.746Z,98935.78
2023-07-01T11:36:16.968Z,98926.16
2023-07-01T11:39:10.364Z,98899.69
2023-07-01T11:42:02.354Z,98892.91
2023-07-01T11:44:50.113Z,98912.91
2023-07-01T11:47:37.970Z,98916.44
2023-07-01T11:50:25.797Z,98920.34
2023-07-01T11:53:13.769Z,98915.75
2023-07-01T11:56:03.415Z,98892.91
2023-07-01T11:59:01.325Z,98922.09
2023-07-01T12:01:49.670Z,98922.56
2023-07-01T12:04:38.382Z,98909.16
2023-07-01T12:07:26.527Z,98911.59
2023-07-01T12:10:22.397Z,98911.22
2023-07-01T12:13:29.856Z,98916.78
2023-07-01T12:16:20.274Z,98901.41
2023-07-01T12:19:08.100Z,98904.97
2023-07-01T12:21:57.701Z,98912.91
2023-07-01T12:24:45.627Z,98906.03
2023-07-01T12:27:34.712Z,98906.66
2023-07-01T12:30:23.021Z,98892.03
2023-07-01T12:33:12.197Z,98892.69
2023-07-01T12:36:01.134Z,98891.31
2023-07-01T12:38:48.915Z,98886.91
2023-07-01T12:41:37.358Z,98890.25
2023-07-01T12:44:25.115Z,98890.78
2023-07-01T12:47:13.230Z,98893.25
2023-07-01T12:50:02.558Z,98901.22
2023-07-01T12:52:54.273Z,98890.88
2023-07-01T12:55:42.480Z,98890.09
2023-07-01T12:58:30.396Z,98890.09
2023-07-01T13:01:18.388Z,98888.00
2023-07-01T13:04:07.021Z,98887.41
2023-07-01T13:06:56.328Z,98887.41
2023-07-01T13:09:51.177Z,98873.66
2023-07-01T13:12:39.397Z,98886.25
2023-07-01T13:15:33.612Z,98876.22
2023-07-01T13:18:23.393Z,98875.34
2023-07-01T13:21:11.494Z,98864.69
2023-07-01T13:24:05.889Z,98861.13
2023-07-01T13:26:58.765Z,98854.00
2023-07-01T13:29:46.606Z,98856.75
2023-07-01T13:32:34.619Z,98851.81
2023-07-01T13:35:23.393Z,98846.31
2023-07-01T13:38:11.815Z,98848.78
2023-07-01T13:41:01.127Z,98844.09
2023-07-01T13:43:49.058Z,98850.16
2023-07-01T13:46:42.108Z,98826.25
2023-07-01T13:49:32.194Z,98838.63
2023-07-01T13:52:19.954Z,98838.63
2023-07-01T13:55:10.544Z,98838.06
2023-07-01T13:57:59.985Z,98835.06
2023-07-01T14:00:50.509Z,98831.47
2023-07-01T14:03:48.755Z,98832.31
2023-07-01T14:06:40.488Z,98831.47
2023-07-01T14:09:30.012Z,98825.44
2023-07-01T14:12:19.389Z,98819.66
2023-07-01T14:15:09.117Z,98821.31
2023-07-01T14:17:56.961Z,98819.63
2023-07-01T14:20:47.285Z,98807.34
2023-07-01T14:23:39.018Z,98814.16
2023-07-01T14:26:30.008Z,98798.81
2023-07-01T14:29:18.251Z,98793.88
2023-07-01T14:32:09.939Z,98790.84
2023-07-01T14:34:58.032Z,98785.63
2023-07-01T14:37:48.940Z,98779.03
2023-07-01T14:40:37.689Z,98771.91
2023-07-01T14:43:25.497Z,98772.19
2023-07-01T14:46:13.552Z,98760.13
2023-07-01T14:49:04.512Z,98766.97
2023-07-01T14:51:52.316Z,98759.00
2023-07-01T14:54:40.131Z,98759.28
2023-07-01T14:57:27.966Z,98759.00
2023-07-01T15:00:15.998Z,98762.31
2023-07-01T15:03:03.793Z,98755.69
2023-07-01T15:05:53.300Z,98757.91
2023-07-01T15:08:41.721Z,98760.38
2023-07-01T15:11:29.691Z,98757.88
2023-07-01T15:14:17.500Z,98752.91
2023-07-01T15:17:06.038Z,98746.94
2023-07-01T15:19:53.882Z,98748.56
2023-07-01T15:22:43.353Z,98713.66
2023-07-01T15:25:31.281Z,98741.19
2023-07-01T15:28:19.615Z,98737.59
2023-07-01T15:31:07.709Z,98741.16
2023-07-01T15:33:55.522Z,98738.13
2023-07-01T15:36:43.424Z,98736.72
2023-07-01T15:39:33.104Z,98732.38
2023-07-01T15:42:21.085Z,98725.53
2023-07-01T15:45:10.107Z,98722.75
2023-07-01T15:47:58.222Z,98732.63
2023-07-01T15:50:46.115Z,98735.34
2023-07-01T15:53:34.718Z,98729.34
2023-07-01T15:56:24.361Z,98669.25
2023-07-01T15:59:12.292Z,98732.94
2023-07-01T16:02:03.236Z,98744.72
2023-07-01T16:04:51.160Z,98752.91
2023-07-01T16:07:59.421Z,98751.31
2023-07-01T16:10:50.747Z,98758.13
2023-07-01T16:13:41.003Z,98755.66
2023-07-01T16:16:43.271Z,98751.28
2023-07-01T16:19:39.056Z,98748.00
2023-07-01T16:22:27.994Z,98757.56
2023-07-01T16:25:15.788Z,98761.66
2023-07-01T16:28:04.680Z,98752.06
2023-07-01T16:30:54.145Z,98744.69
2023-07-01T16:33:42.298Z,98751.25
2023-07-01T16:36:36.277Z,98749.59
2023-07-01T16:39:24.654Z,98746.03
2023-07-01T16:42:13.482Z,98733.72
2023-07-01T16:45:01.657Z,98733.09
2023-07-01T16:47:51.167Z,98738.03
2023-07-01T16:50:55.022Z,98735.75
2023-07-01T16:53:44.754Z,98731.44
2023-07-01T16:56:40.094Z,98742.97
2023-07-01T16:59:43.034Z,98736.94
2023-07-01T17:03:00.898Z,98742.13
2023-07-01T17:05:50.782Z,98744.78
2023-07-01T17:08:39.467Z,98747.03
2023-07-01T17:11:44.625Z,98737.88
2023-07-01T17:14:43.232Z,98738.44
2023-07-01T17:17:49.027Z,98735.69
2023-07-01T17:20:37.070Z,98732.41
2023-07-01T17:23:26.768Z,98733.72
2023-07-01T17:26:16.108Z,98732.13
2023-07-01T17:29:03.946Z,98734.00
2023-07-01T17:31:51.861Z,98734.47
2023-07-01T17:34:46.125Z,98733.94
2023-07-01T17:37:33.937Z,98740.16
2023-07-01T17:40:24.732Z,98719.03
2023-07-01T17:43:12.648Z,98747.38
2023-07-01T17:46:00.602Z,98727.72
2023-07-01T17:48:48.408Z,98740.09
2023-07-01T17:51:36.294Z,98752.66
2023-07-01T17:54:24.010Z,98756.47
2023-07-01T17:57:13.605Z,98774.75
2023-07-01T18:00:01.879Z,98779.66
2023-07-01T18:02:50.071Z,98781.72
2023-07-01T18:05:38.336Z,98786.91
2023-07-01T18:08:26.158Z,98787.03
2023-07-01T18:11:14.144Z,98796.94
2023-07-01T18:14:03.729Z,98793.28
2023-07-01T18:16:53.456Z,98793.25
2023-07-01T18:19:41.880Z,98789.47
2023-07-01T18:22:29.717Z,98792.44
2023-07-01T18:25:17.693Z,98790.59
2023-07-01T18:28:05.618Z,98788.44
2023-07-01T18:30:54.778Z,98788.19
2023-07-01T18:33:42.589Z,98801.28
2023-07-01T18:36:30.530Z,98799.03
2023-07-01T18:39:18.292Z,98796.13
2023-07-01T18:42:06.799Z,98799.09
2023-07-01T18:44:54.503Z,98801.41
2023-07-01T18:47:44.059Z,98808.13
2023-07-01T18:50:31.921Z,98803.03
2023-07-01T18:53:19.716Z,98801.97
2023-07-01T18:56:07.732Z,98812.22
2023-07-01T18:58:55.643Z,98805.44
2023-07-01T19:01:43.445Z,98811.91
2023-07-01T19:04:34.966Z,98815.16
2023-07-01T19:07:22.996Z,98815.25
2023-07-01T19:10:11.403Z,98817.00
2023-07-01T19:12:59.412Z,98764.47
2023-07-01T19:15:47.700Z,98818.59
2023-07-01T19:18:35.940Z,98816.03
2023-07-01T19:21:25.119Z,98831.50
2023-07-01T19:24:12.918Z,98832.19
2023-07-01T19:27:01.485Z,98834.47
2023-07-01T19:30:03.321Z,98827.50
2023-07-01T19:32:56.369Z,98828.13
2023-07-01T19:35:44.193Z,98836.81
2023-07-01T19:38:34.433Z,98839.47
2023-07-01T19:41:22.456Z,98821.66
2023-07-01T19:44:10.132Z,98843.41
2023-07-01T19:46:58.041Z,98845.09
2023-07-01T19:49:45.773Z,98846.59
2023-07-01T19:52:35.722Z,98851.31
2023-07-01T19:55:24.913Z,98853.69
2023-07-01T19:58:12.717Z,98860.34
2023-07-01T20:01:00.520Z,98851.84
2023-07-01T20:03:48.394Z,98847.31
2023-07-01T20:06:36.276Z,98846.19
2023-07-01T20:09:23.983Z,98849.22
2023-07-01T20:12:14.299Z,98783.41
2023-07-01T20:15:02.362Z,98872.41
2023-07-01T20:17:50.443Z,98889.69
2023-07-01T20:20:38.386Z,98937.97
2023-07-01T20:23:26.352Z,98946.41
2023-07-01T20:26:14.081Z,98956.34
2023-07-01T20:29:03.166Z,98943.38
2023-07-01T20:31:51.017Z,98933.03
2023-07-01T20:34:38.845Z,98932.94
2023-07-01T20:37:26.585Z,98938.91
2023-07-01T20:40:15.031Z,98954.25
2023-07-01T20:43:03.008Z,98958.41
2023-07-01T20:45:52.310Z,98962.09
2023-07-01T20:48:40.320Z,98970.13
2023-07-01T20:51:28.193Z,98960.94
2023-07-01T20:54:16.215Z,98950.88
2023-07-01T20:57:03.908Z,98955.94
2023-07-01T20:59:51.708Z,98950.00
2023-07-01T21:02:40.931Z,98956.69
2023-07-01T21:05:33.776Z,98950.69
2023-07-01T21:08:21.870Z,98954.09
2023-07-01T21:11:09.686Z,98954.00
2023-07-01T21:13:57.611Z,98972.91
2023-07-01T21:16:50.463Z,98989.75
2023-07-01T21:19:42.221Z,98990.47
2023-07-01T21:22:30.790Z,98996.47
2023-07-01T21:25:18.546Z,98990.19
2023-07-01T21:28:08.254Z,98986.31
2023-07-01T21:30:56.056Z,98977.88
2023-07-01T21:33:44.031Z,98967.84
2023-07-01T21:36:33.907Z,98867.03
2023-07-01T21:39:24.529Z,98947.34
2023-07-01T21:42:12.774Z,98950.19
2023-07-01T21:45:00.533Z,98939.69
2023-07-01T21:47:48.378Z,98935.25
2023-07-01T21:50:52.389Z,98929.16
2023-07-01T21:53:42.880Z,98920.91
2023-07-01T21:56:40.089Z,98919.94
2023-07-01T21:59:29.717Z,98908.91
2023-07-01T22:02:25.820Z,98914.81
2023-07-01T22:05:15.788Z,98915.63
2023-07-01T22:08:04.282Z,98926.34
2023-07-01T22:10:58.635Z,98921.13
2023-07-01T22:13:46.795Z,98909.56
2023-07-01T22:16:35.898Z,98899.03
2023-07-01T22:19:23.984Z,98897.91
2023-07-01T22:22:11.949Z,98885.97
2023-07-01T22:25:00.074Z,98877.38
2023-07-01T22:27:49.356Z,98880.31
2023-07-01T22:30:37.220Z,98874.53
2023-07-01T22:33:25.251Z,98859.47
2023-07-01T22:36:12.973Z,98845.44
2023-07-01T22:39:00.792Z,98817.53
2023-07-01T22:41:48.587Z,98791.38
2023-07-01T22:44:37.806Z,98756.28
2023-07-01T22:47:25.703Z,98775.19
2023-07-01T22:50:17.850Z,98783.84
2023-07-01T22:53:05.686Z,98801.34
2023-07-01T22:55:53.866Z,98808.94
2023-07-01T22:58:41.710Z,98817.69
2023-07-01T23:01:31.059Z,98827.34
2023-07-01T23:04:19.039Z,98834.16
2023-07-01T23:07:07.360Z,98841.53
2023-07-01T23:09:55.146Z,98858.56
2023-07-01T23:12:43.016Z,98863.88
2023-07-01T23:15:30.832Z,98865.13
2023-07-01T23:18:20.105Z,98854.88
2023-07-01T23:21:08.070Z,98851.28
2023-07-01T23:23:55.776Z,98830.16
2023-07-01T23:26:43.739Z,98818.06
2023-07-01T23:29:31.628Z,98820.88
2023-07-01T23:32:22.675Z,98817.41
2023-07-01T23:35:11.992Z,98812.97
2023-07-01T23:37:59.841Z,98816.03
2023-07-01T23:40:47.962Z,98817.22
2023-07-01T23:43:35.967Z,98825.84
2023-07-01T23:46:24.211Z,98824.94
2023-07-01T23:49:11.852Z,98821.34
2023-07-01T23:52:01.172Z,98829.63
2023-07-01T23:54:49.915Z,98819.50
2023-07-01T23:57:38.768Z,98813.41
